sensor_id;sensor_type;location;lat;lon;timestamp;P1;durP1;ratioP1;P2;durP2;ratioP2
43962;SDS011;29622;45.534;9.242;2022-11-15T00:02:02;31.30;;;14.37;;
43962;SDS011;29622;45.534;9.242;2022-11-15T00:07:23;24.52;;;13.57;;
43962;SDS011;29622;45.534;9.242;2022-11-15T00:12:46;27.30;;;13.82;;
43962;SDS011;29622;45.534;9.242;2022-11-15T00:18:14;26.17;;;13.35;;
43962;SDS011;29622;45.534;9.242;2022-11-15T00:23:37;27.75;;;14.23;;
43962;SDS011;29622;45.534;9.242;2022-11-15T00:29:00;25.67;;;14.88;;
43962;SDS011;29622;45.534;9.242;2022-11-15T00:34:20;30.50;;;15.13;;
43962;SDS011;29622;45.534;9.242;2022-11-15T00:39:43;27.48;;;14.48;;
43962;SDS011;29622;45.534;9.242;2022-11-15T00:45:03;29.02;;;14.80;;
43962;SDS011;29622;45.534;9.242;2022-11-15T00:50:26;33.40;;;16.25;;
43962;SDS011;29622;45.534;9.242;2022-11-15T00:55:46;32.65;;;14.48;;
43962;SDS011;29622;45.534;9.242;2022-11-15T01:01:06;26.45;;;14.60;;
43962;SDS011;29622;45.534;9.242;2022-11-15T01:06:33;32.42;;;14.80;;
43962;SDS011;29622;45.534;9.242;2022-11-15T01:11:52;24.77;;;13.15;;
43962;SDS011;29622;45.534;9.242;2022-11-15T01:22:41;26.52;;;13.75;;
43962;SDS011;29622;45.534;9.242;2022-11-15T01:34:41;31.33;;;14.65;;
43962;SDS011;29622;45.534;9.242;2022-11-15T01:52:58;27.42;;;14.13;;
43962;SDS011;29622;45.534;9.242;2022-11-15T01:58:24;22.98;;;13.00;;
43962;SDS011;29622;45.534;9.242;2022-11-15T02:34:35;30.20;;;13.07;;
43962;SDS011;29622;45.534;9.242;2022-11-15T02:40:59;24.20;;;12.65;;
43962;SDS011;29622;45.534;9.242;2022-11-15T02:46:57;25.98;;;12.45;;
43962;SDS011;29622;45.534;9.242;2022-11-15T02:52:32;24.75;;;12.93;;
43962;SDS011;29622;45.534;9.242;2022-11-15T03:10:46;23.00;;;12.70;;
43962;SDS011;29622;45.534;9.242;2022-11-15T03:16:15;22.80;;;11.73;;
43962;SDS011;29622;45.534;9.242;2022-11-15T03:21:46;23.88;;;12.23;;
43962;SDS011;29622;45.534;9.242;2022-11-15T03:39:26;23.45;;;12.57;;
43962;SDS011;29622;45.534;9.242;2022-11-15T03:57:15;30.55;;;14.60;;
43962;SDS011;29622;45.534;9.242;2022-11-15T04:02:47;24.70;;;13.00;;
43962;SDS011;29622;45.534;9.242;2022-11-15T04:08:09;25.80;;;12.80;;
43962;SDS011;29622;45.534;9.242;2022-11-15T04:13:35;25.05;;;14.05;;
43962;SDS011;29622;45.534;9.242;2022-11-15T04:19:17;30.45;;;14.00;;
43962;SDS011;29622;45.534;9.242;2022-11-15T04:25:09;23.05;;;13.13;;
43962;SDS011;29622;45.534;9.242;2022-11-15T04:37:03;24.67;;;13.23;;
43962;SDS011;29622;45.534;9.242;2022-11-15T04:42:41;24.63;;;13.85;;
43962;SDS011;29622;45.534;9.242;2022-11-15T04:48:03;31.77;;;14.07;;
43962;SDS011;29622;45.534;9.242;2022-11-15T04:53:23;25.52;;;13.52;;
43962;SDS011;29622;45.534;9.242;2022-11-15T04:58:48;23.42;;;11.73;;
43962;SDS011;29622;45.534;9.242;2022-11-15T05:10:22;23.17;;;12.47;;
43962;SDS011;29622;45.534;9.242;2022-11-15T05:16:18;23.17;;;12.88;;
43962;SDS011;29622;45.534;9.242;2022-11-15T05:21:38;21.95;;;12.02;;
43962;SDS011;29622;45.534;9.242;2022-11-15T05:27:00;23.40;;;12.95;;
43962;SDS011;29622;45.534;9.242;2022-11-15T05:32:22;27.67;;;13.50;;
43962;SDS011;29622;45.534;9.242;2022-11-15T05:37:47;21.35;;;12.30;;
43962;SDS011;29622;45.534;9.242;2022-11-15T06:15:14;21.73;;;13.23;;
43962;SDS011;29622;45.534;9.242;2022-11-15T06:26:57;17.65;;;10.10;;
43962;SDS011;29622;45.534;9.242;2022-11-15T06:32:28;28.95;;;13.00;;
43962;SDS011;29622;45.534;9.242;2022-11-15T06:38:31;27.15;;;13.10;;
43962;SDS011;29622;45.534;9.242;2022-11-15T06:57:16;20.40;;;10.25;;
43962;SDS011;29622;45.534;9.242;2022-11-15T07:08:21;19.15;;;9.98;;
43962;SDS011;29622;45.534;9.242;2022-11-15T07:20:51;23.63;;;12.27;;
43962;SDS011;29622;45.534;9.242;2022-11-15T07:26:25;21.35;;;11.07;;
43962;SDS011;29622;45.534;9.242;2022-11-15T07:37:05;21.25;;;11.32;;
43962;SDS011;29622;45.534;9.242;2022-11-15T07:42:24;29.80;;;8.65;;
43962;SDS011;29622;45.534;9.242;2022-11-15T07:48:03;22.38;;;10.98;;
43962;SDS011;29622;45.534;9.242;2022-11-15T07:53:22;26.60;;;11.27;;
43962;SDS011;29622;45.534;9.242;2022-11-15T07:58:42;18.75;;;11.50;;
43962;SDS011;29622;45.534;9.242;2022-11-15T08:04:04;28.63;;;13.55;;
43962;SDS011;29622;45.534;9.242;2022-11-15T08:09:37;26.52;;;11.95;;
43962;SDS011;29622;45.534;9.242;2022-11-15T08:21:34;21.83;;;12.85;;
43962;SDS011;29622;45.534;9.242;2022-11-15T08:26:54;26.95;;;13.48;;
43962;SDS011;29622;45.534;9.242;2022-11-15T08:39:12;28.85;;;13.82;;
43962;SDS011;29622;45.534;9.242;2022-11-15T08:51:24;31.73;;;14.98;;
43962;SDS011;29622;45.534;9.242;2022-11-15T08:56:43;31.95;;;15.73;;
43962;SDS011;29622;45.534;9.242;2022-11-15T09:02:04;25.27;;;14.18;;
43962;SDS011;29622;45.534;9.242;2022-11-15T09:13:36;27.42;;;13.60;;
43962;SDS011;29622;45.534;9.242;2022-11-15T09:19:05;24.23;;;13.77;;
43962;SDS011;29622;45.534;9.242;2022-11-15T09:24:36;27.63;;;13.18;;
43962;SDS011;29622;45.534;9.242;2022-11-15T09:36:06;25.10;;;13.50;;
43962;SDS011;29622;45.534;9.242;2022-11-15T10:10:56;19.02;;;10.13;;
43962;SDS011;29622;45.534;9.242;2022-11-15T10:16:34;16.30;;;8.48;;
43962;SDS011;29622;45.534;9.242;2022-11-15T10:28:37;23.52;;;12.38;;
43962;SDS011;29622;45.534;9.242;2022-11-15T10:46:39;19.55;;;11.90;;
43962;SDS011;29622;45.534;9.242;2022-11-15T11:18:15;26.52;;;14.55;;
43962;SDS011;29622;45.534;9.242;2022-11-15T11:23:43;27.85;;;14.23;;
43962;SDS011;29622;45.534;9.242;2022-11-15T11:47:24;19.38;;;9.68;;
43962;SDS011;29622;45.534;9.242;2022-11-15T11:52:57;42.47;;;15.10;;
43962;SDS011;29622;45.534;9.242;2022-11-15T11:58:36;24.27;;;9.90;;
43962;SDS011;29622;45.534;9.242;2022-11-15T12:14:04;19.27;;;10.70;;
43962;SDS011;29622;45.534;9.242;2022-11-15T12:19:13;20.48;;;11.13;;
43962;SDS011;29622;45.534;9.242;2022-11-15T12:29:54;22.67;;;13.15;;
43962;SDS011;29622;45.534;9.242;2022-11-15T12:35:24;23.52;;;11.98;;
43962;SDS011;29622;45.534;9.242;2022-11-15T12:41:13;24.77;;;13.05;;
43962;SDS011;29622;45.534;9.242;2022-11-15T12:56:43;23.80;;;13.98;;
43962;SDS011;29622;45.534;9.242;2022-11-15T13:02:16;26.90;;;14.35;;
43962;SDS011;29622;45.534;9.242;2022-11-15T13:17:47;24.63;;;13.80;;
43962;SDS011;29622;45.534;9.242;2022-11-15T13:33:17;23.52;;;11.25;;
43962;SDS011;29622;45.534;9.242;2022-11-15T13:39:23;24.70;;;12.32;;
43962;SDS011;29622;45.534;9.242;2022-11-15T13:45:25;20.48;;;11.32;;
43962;SDS011;29622;45.534;9.242;2022-11-15T13:50:40;21.77;;;11.50;;
43962;SDS011;29622;45.534;9.242;2022-11-15T14:08:25;19.98;;;11.20;;
43962;SDS011;29622;45.534;9.242;2022-11-15T14:13:30;22.73;;;10.98;;
43962;SDS011;29622;45.534;9.242;2022-11-15T14:18:42;19.73;;;10.85;;
43962;SDS011;29622;45.534;9.242;2022-11-15T14:29:29;20.23;;;9.63;;
43962;SDS011;29622;45.534;9.242;2022-11-15T14:34:31;17.35;;;9.65;;
43962;SDS011;29622;45.534;9.242;2022-11-15T14:39:33;17.75;;;9.00;;
43962;SDS011;29622;45.534;9.242;2022-11-15T14:44:34;20.30;;;9.18;;
43962;SDS011;29622;45.534;9.242;2022-11-15T14:49:35;16.67;;;9.63;;
43962;SDS011;29622;45.534;9.242;2022-11-15T14:54:46;15.65;;;8.45;;
43962;SDS011;29622;45.534;9.242;2022-11-15T14:59:47;15.18;;;8.13;;
43962;SDS011;29622;45.534;9.242;2022-11-15T15:04:51;13.32;;;7.65;;
43962;SDS011;29622;45.534;9.242;2022-11-15T15:09:53;14.95;;;7.72;;
43962;SDS011;29622;45.534;9.242;2022-11-15T15:14:54;15.10;;;8.02;;
43962;SDS011;29622;45.534;9.242;2022-11-15T15:19:55;13.77;;;8.27;;
43962;SDS011;29622;45.534;9.242;2022-11-15T15:24:56;19.08;;;8.50;;
43962;SDS011;29622;45.534;9.242;2022-11-15T15:29:57;22.90;;;9.45;;
43962;SDS011;29622;45.534;9.242;2022-11-15T15:34:58;18.38;;;8.77;;
43962;SDS011;29622;45.534;9.242;2022-11-15T15:39:59;14.05;;;7.68;;
43962;SDS011;29622;45.534;9.242;2022-11-15T15:45:00;13.63;;;8.20;;
43962;SDS011;29622;45.534;9.242;2022-11-15T15:50:01;13.90;;;7.90;;
43962;SDS011;29622;45.534;9.242;2022-11-15T15:55:03;14.88;;;8.13;;
43962;SDS011;29622;45.534;9.242;2022-11-15T16:00:04;12.70;;;6.85;;
43962;SDS011;29622;45.534;9.242;2022-11-15T16:05:12;15.02;;;8.27;;
43962;SDS011;29622;45.534;9.242;2022-11-15T16:15:28;17.63;;;8.18;;
43962;SDS011;29622;45.534;9.242;2022-11-15T16:20:38;14.48;;;7.32;;
43962;SDS011;29622;45.534;9.242;2022-11-15T16:25:45;15.38;;;7.85;;
43962;SDS011;29622;45.534;9.242;2022-11-15T16:30:58;23.77;;;6.72;;
43962;SDS011;29622;45.534;9.242;2022-11-15T16:36:24;18.75;;;8.75;;
43962;SDS011;29622;45.534;9.242;2022-11-15T16:41:26;12.52;;;6.40;;
43962;SDS011;29622;45.534;9.242;2022-11-15T16:46:27;11.00;;;6.40;;
43962;SDS011;29622;45.534;9.242;2022-11-15T16:52:03;12.15;;;5.82;;
43962;SDS011;29622;45.534;9.242;2022-11-15T16:57:13;12.20;;;6.65;;
43962;SDS011;29622;45.534;9.242;2022-11-15T17:02:23;14.77;;;6.68;;
43962;SDS011;29622;45.534;9.242;2022-11-15T17:07:27;9.30;;;5.18;;
43962;SDS011;29622;45.534;9.242;2022-11-15T17:12:28;14.18;;;7.15;;
43962;SDS011;29622;45.534;9.242;2022-11-15T17:17:30;27.25;;;8.98;;
43962;SDS011;29622;45.534;9.242;2022-11-15T17:22:31;17.20;;;7.75;;
43962;SDS011;29622;45.534;9.242;2022-11-15T17:27:35;13.27;;;7.47;;
43962;SDS011;29622;45.534;9.242;2022-11-15T17:32:36;14.23;;;7.15;;
43962;SDS011;29622;45.534;9.242;2022-11-15T17:37:37;12.35;;;7.35;;
43962;SDS011;29622;45.534;9.242;2022-11-15T17:42:41;14.40;;;7.22;;
43962;SDS011;29622;45.534;9.242;2022-11-15T17:47:43;18.77;;;7.82;;
43962;SDS011;29622;45.534;9.242;2022-11-15T17:52:43;15.10;;;7.57;;
43962;SDS011;29622;45.534;9.242;2022-11-15T17:57:44;11.75;;;7.50;;
43962;SDS011;29622;45.534;9.242;2022-11-15T18:02:48;18.75;;;9.18;;
43962;SDS011;29622;45.534;9.242;2022-11-15T18:07:57;16.13;;;8.10;;
43962;SDS011;29622;45.534;9.242;2022-11-15T18:13:16;14.07;;;8.07;;
43962;SDS011;29622;45.534;9.242;2022-11-15T18:18:17;15.38;;;8.32;;
43962;SDS011;29622;45.534;9.242;2022-11-15T18:23:17;26.23;;;9.52;;
43962;SDS011;29622;45.534;9.242;2022-11-15T18:28:21;20.98;;;9.40;;
43962;SDS011;29622;45.534;9.242;2022-11-15T18:33:22;18.58;;;8.30;;
43962;SDS011;29622;45.534;9.242;2022-11-15T18:38:23;14.52;;;8.98;;
43962;SDS011;29622;45.534;9.242;2022-11-15T18:43:33;14.10;;;8.15;;
43962;SDS011;29622;45.534;9.242;2022-11-15T18:48:36;18.17;;;8.45;;
43962;SDS011;29622;45.534;9.242;2022-11-15T18:53:50;16.10;;;8.32;;
43962;SDS011;29622;45.534;9.242;2022-11-15T18:58:57;16.20;;;8.38;;
43962;SDS011;29622;45.534;9.242;2022-11-15T19:04:02;18.58;;;8.77;;
43962;SDS011;29622;45.534;9.242;2022-11-15T19:09:05;17.08;;;9.00;;
43962;SDS011;29622;45.534;9.242;2022-11-15T19:14:17;19.63;;;9.05;;
43962;SDS011;29622;45.534;9.242;2022-11-15T19:19:28;13.93;;;7.85;;
43962;SDS011;29622;45.534;9.242;2022-11-15T19:24:53;13.45;;;7.57;;
43962;SDS011;29622;45.534;9.242;2022-11-15T19:29:54;17.10;;;9.25;;
43962;SDS011;29622;45.534;9.242;2022-11-15T19:35:01;14.45;;;8.70;;
43962;SDS011;29622;45.534;9.242;2022-11-15T19:40:02;14.75;;;9.00;;
43962;SDS011;29622;45.534;9.242;2022-11-15T19:45:03;20.92;;;9.25;;
43962;SDS011;29622;45.534;9.242;2022-11-15T19:50:05;16.88;;;9.77;;
43962;SDS011;29622;45.534;9.242;2022-11-15T19:55:08;22.58;;;12.05;;
43962;SDS011;29622;45.534;9.242;2022-11-15T20:00:10;18.92;;;10.35;;
43962;SDS011;29622;45.534;9.242;2022-11-15T20:05:14;14.73;;;8.55;;
43962;SDS011;29622;45.534;9.242;2022-11-15T20:10:15;16.10;;;9.43;;
43962;SDS011;29622;45.534;9.242;2022-11-15T20:15:16;16.15;;;9.90;;
43962;SDS011;29622;45.534;9.242;2022-11-15T20:20:17;34.35;;;12.10;;
43962;SDS011;29622;45.534;9.242;2022-11-15T20:25:18;17.85;;;9.95;;
43962;SDS011;29622;45.534;9.242;2022-11-15T20:30:19;17.77;;;10.27;;
43962;SDS011;29622;45.534;9.242;2022-11-15T20:35:20;16.55;;;9.48;;
43962;SDS011;29622;45.534;9.242;2022-11-15T20:40:21;16.55;;;9.63;;
43962;SDS011;29622;45.534;9.242;2022-11-15T20:45:26;18.45;;;10.80;;
43962;SDS011;29622;45.534;9.242;2022-11-15T20:50:27;15.90;;;8.80;;
43962;SDS011;29622;45.534;9.242;2022-11-15T20:55:28;20.38;;;9.55;;
43962;SDS011;29622;45.534;9.242;2022-11-15T21:00:32;15.93;;;9.13;;
43962;SDS011;29622;45.534;9.242;2022-11-15T21:05:36;25.35;;;9.38;;
43962;SDS011;29622;45.534;9.242;2022-11-15T21:10:41;18.13;;;9.10;;
43962;SDS011;29622;45.534;9.242;2022-11-15T21:16:01;18.23;;;9.93;;
43962;SDS011;29622;45.534;9.242;2022-11-15T21:21:34;17.23;;;10.25;;
43962;SDS011;29622;45.534;9.242;2022-11-15T21:26:36;15.60;;;8.25;;
43962;SDS011;29622;45.534;9.242;2022-11-15T21:31:37;17.20;;;8.60;;
43962;SDS011;29622;45.534;9.242;2022-11-15T21:36:39;16.40;;;8.82;;
43962;SDS011;29622;45.534;9.242;2022-11-15T21:47:45;16.63;;;8.35;;
43962;SDS011;29622;45.534;9.242;2022-11-15T21:52:46;16.40;;;9.00;;
43962;SDS011;29622;45.534;9.242;2022-11-15T21:57:50;24.95;;;9.27;;
43962;SDS011;29622;45.534;9.242;2022-11-15T22:02:54;29.27;;;12.02;;
43962;SDS011;29622;45.534;9.242;2022-11-15T22:08:03;15.32;;;8.52;;
43962;SDS011;29622;45.534;9.242;2022-11-15T22:13:08;14.93;;;8.45;;
43962;SDS011;29622;45.534;9.242;2022-11-15T22:18:12;18.20;;;9.25;;
43962;SDS011;29622;45.534;9.242;2022-11-15T22:23:13;15.45;;;9.00;;
43962;SDS011;29622;45.534;9.242;2022-11-15T22:28:16;16.10;;;9.98;;
43962;SDS011;29622;45.534;9.242;2022-11-15T22:33:19;16.58;;;8.77;;
43962;SDS011;29622;45.534;9.242;2022-11-15T22:38:24;17.90;;;9.10;;
43962;SDS011;29622;45.534;9.242;2022-11-15T22:43:26;17.00;;;7.97;;
43962;SDS011;29622;45.534;9.242;2022-11-15T22:48:43;17.75;;;8.57;;
43962;SDS011;29622;45.534;9.242;2022-11-15T22:53:44;18.42;;;10.10;;
43962;SDS011;29622;45.534;9.242;2022-11-15T22:58:50;19.80;;;9.38;;
43962;SDS011;29622;45.534;9.242;2022-11-15T23:04:12;13.65;;;8.32;;
43962;SDS011;29622;45.534;9.242;2022-11-15T23:09:20;19.92;;;10.63;;
43962;SDS011;29622;45.534;9.242;2022-11-15T23:14:27;17.13;;;8.93;;
43962;SDS011;29622;45.534;9.242;2022-11-15T23:19:31;17.27;;;7.93;;
43962;SDS011;29622;45.534;9.242;2022-11-15T23:24:41;13.32;;;7.32;;
43962;SDS011;29622;45.534;9.242;2022-11-15T23:29:45;12.88;;;7.22;;
43962;SDS011;29622;45.534;9.242;2022-11-15T23:35:10;14.60;;;7.75;;
43962;SDS011;29622;45.534;9.242;2022-11-15T23:40:21;13.63;;;7.32;;
43962;SDS011;29622;45.534;9.242;2022-11-15T23:45:31;14.52;;;8.02;;
43962;SDS011;29622;45.534;9.242;2022-11-15T23:50:38;14.55;;;8.02;;
43962;SDS011;29622;45.534;9.242;2022-11-15T23:55:39;17.50;;;8.00;;
